Time;durP1;ratioP1;P1;durP2;ratioP2;P2;SDS_P1;SDS_P2;PMS_P1;PMS_P2;Temp;Humidity;BMP_temperature;BMP_pressure;BME280_temperature;BME280_humidity;BME280_pressure;Samples;Min_cycle;Max_cycle;Signal;HPM_P1;HPM_P2
2021/05/16 00:01:52;;;;;;;6.95;4.25;;;;;;;15.56;54.91;100164.06;1785605;80;21174;-49
2021/05/16 00:04:26;;;;;;;7.72;5.12;;;;;;;15.50;55.04;100164.28;1838509;77;22147;-65
2021/05/16 00:07:00;;;;;;;7.55;5.03;;;;;;;15.46;55.32;100158.23;1820308;77;22609;-65
2021/05/16 00:09:33;;;;;;;6.85;5.05;;;;;;;15.43;55.47;100152.19;1817233;77;22551;-65
2021/05/16 00:12:08;;;;;;;7.58;4.70;;;;;;;15.46;55.51;100157.35;1816166;77;22610;-66
2021/05/16 00:14:41;;;;;;;7.17;4.35;;;;;;;15.50;55.66;100152.34;1846416;77;22165;-48
2021/05/16 00:17:14;;;;;;;6.30;3.98;;;;;;;15.51;55.31;100148.77;1808636;77;22144;-66
2021/05/16 00:19:48;;;;;;;5.72;4.20;;;;;;;15.53;55.09;100146.08;1831589;77;22653;-48
2021/05/16 00:22:33;;;;;;;8.65;4.85;;;;;;;15.47;54.93;100147.15;1761882;80;21275;-66
2021/05/16 00:25:10;;;;;;;7.65;4.80;;;;;;;15.46;55.11;100146.30;1798012;77;22614;-65
2021/05/16 00:27:44;;;;;;;7.35;4.92;;;;;;;15.39;55.14;100142.61;1806545;77;22181;-49
2021/05/16 00:30:29;;;;;;;6.72;4.92;;;;;;;15.28;55.25;100144.30;1766545;80;21110;-49
2021/05/16 00:33:03;;;;;;;6.97;4.87;;;;;;;15.26;55.30;100145.69;1821347;77;22172;-48
2021/05/16 00:35:36;;;;;;;5.90;4.58;;;;;;;15.25;55.36;100141.75;1805717;77;22179;-48
2021/05/16 00:38:22;;;;;;;7.58;5.15;;;;;;;15.23;55.54;100144.95;1734163;81;21118;-67
2021/05/16 00:40:55;;;;;;;9.85;5.75;;;;;;;15.29;55.93;100143.38;1798598;77;22621;-49
2021/05/16 00:43:28;;;;;;;9.63;6.40;;;;;;;15.28;56.49;100143.85;1805010;77;22612;-66
2021/05/16 00:46:01;;;;;;;11.28;7.33;;;;;;;15.27;57.50;100141.23;1790150;77;22598;-65
2021/05/16 00:48:34;;;;;;;15.18;7.55;;;;;;;15.28;58.03;100138.99;1805920;77;22587;-48
2021/05/16 00:51:10;;;;;;;10.30;7.70;;;;;;;15.28;58.11;100140.31;1801783;77;22600;-65
2021/05/16 00:53:43;;;;;;;11.63;7.42;;;;;;;15.30;58.28;100139.80;1805311;77;22155;-66
2021/05/16 00:56:16;;;;;;;12.60;7.55;;;;;;;15.29;58.36;100142.93;1818252;77;22135;-65
2021/05/16 00:58:49;;;;;;;12.88;8.90;;;;;;;15.26;58.45;100140.39;1819776;77;22198;-48
2021/05/16 01:01:36;;;;;;;20.20;9.40;;;;;;;15.19;58.77;100150.80;1767357;80;21163;-50
2021/05/16 01:04:09;;;;;;;12.47;8.75;;;;;;;15.20;59.07;100141.08;1812410;77;22175;-66
2021/05/16 01:06:44;;;;;;;13.05;8.95;;;;;;;15.18;59.14;100139.79;1795984;77;22180;-66
2021/05/16 01:09:17;;;;;;;12.93;8.60;;;;;;;15.18;59.01;100140.27;1821761;77;22136;-48
2021/05/16 01:11:51;;;;;;;11.15;7.62;;;;;;;15.26;58.72;100128.90;1820811;77;22163;-66
2021/05/16 01:14:33;;;;;;;8.43;6.60;;;;;;;15.34;58.48;100133.95;1838308;77;22449;-66
2021/05/16 01:17:06;;;;;;;12.28;6.62;;;;;;;15.33;57.71;100123.79;1806271;77;22181;-49
2021/05/16 01:19:39;;;;;;;11.10;7.58;;;;;;;15.27;57.61;100126.21;1824550;77;22127;-48
2021/05/16 01:22:12;;;;;;;14.50;8.40;;;;;;;15.24;57.63;100122.34;1819778;77;22139;-64
2021/05/16 01:24:48;;;;;;;14.03;8.48;;;;;;;15.19;57.61;100124.29;1834011;77;22179;-65
2021/05/16 01:27:20;;;;;;;12.50;7.72;;;;;;;15.18;57.76;100122.56;1823656;77;22136;-66
2021/05/16 01:30:09;;;;;;;10.40;8.03;;;;;;;15.12;57.77;100123.66;1761498;81;21179;-50
2021/05/16 01:32:42;;;;;;;12.45;8.55;;;;;;;15.15;57.73;100127.52;1834784;77;22176;-65
2021/05/16 01:35:15;;;;;;;11.35;8.13;;;;;;;15.09;57.69;100126.85;1827427;77;22194;-48
2021/05/16 01:37:49;;;;;;;13.13;10.00;;;;;;;15.07;57.60;100130.02;1830790;77;22206;-66
2021/05/16 01:40:22;;;;;;;14.60;10.08;;;;;;;15.02;57.25;100127.54;1825828;77;22175;-66
2021/05/16 01:42:57;;;;;;;13.32;9.75;;;;;;;14.96;57.37;100122.45;1834873;77;22622;-49
2021/05/16 01:45:30;;;;;;;16.23;10.18;;;;;;;14.91;57.07;100127.03;1840020;77;22166;-48
2021/05/16 01:48:16;;;;;;;19.17;10.93;;;;;;;14.81;57.05;100127.34;1793000;80;21173;-66
2021/05/16 01:50:49;;;;;;;19.77;11.60;;;;;;;14.76;56.91;100117.39;1837825;77;22170;-65
2021/05/16 01:53:22;;;;;;;18.40;10.75;;;;;;;14.67;56.70;100114.53;1834761;77;22171;-64
2021/05/16 01:56:25;;;;;;;15.98;10.70;;;;;;;14.51;57.04;100113.34;1810456;77;22725;-50
2021/05/16 01:59:01;;;;;;;14.83;10.30;;;;;;;14.40;57.66;100116.31;1853132;77;22147;-65
2021/05/16 02:01:34;;;;;;;13.03;11.35;;;;;;;14.35;58.03;100109.85;1832986;77;22162;-48
2021/05/16 02:04:08;;;;;;;13.70;10.45;;;;;;;14.37;58.07;100105.37;1834046;77;22136;-66
2021/05/16 02:06:57;;;;;;;14.43;11.83;;;;;;;14.38;57.91;100111.08;1739304;80;21141;-49
2021/05/16 02:09:30;;;;;;;18.27;15.68;;;;;;;14.47;57.43;100115.20;1819212;77;28031;-48
2021/05/16 02:12:04;;;;;;;18.73;12.33;;;;;;;14.48;57.39;100109.46;1820737;77;22189;-66
2021/05/16 02:14:37;;;;;;;17.67;10.98;;;;;;;14.51;57.38;100110.69;1808818;77;22154;-66
2021/05/16 02:17:23;;;;;;;14.65;10.05;;;;;;;14.52;57.33;100123.02;1758144;81;21543;-49
2021/05/16 02:19:56;;;;;;;15.95;10.75;;;;;;;14.60;57.03;100121.42;1828246;77;22127;-48
2021/05/16 02:22:29;;;;;;;14.75;11.05;;;;;;;14.61;56.77;100124.00;1840488;77;22147;-66
2021/05/16 02:25:04;;;;;;;14.30;11.43;;;;;;;14.62;56.57;100124.89;1815400;77;22269;-66
2021/05/16 02:27:50;;;;;;;18.80;12.93;;;;;;;14.56;56.30;100133.91;1758299;81;21150;-66
2021/05/16 02:30:24;;;;;;;19.80;13.50;;;;;;;14.53;56.60;100130.04;1843656;77;22586;-48
2021/05/16 02:32:57;;;;;;;13.88;10.70;;;;;;;14.47;56.78;100130.23;1826702;77;22135;-67
2021/05/16 02:35:44;;;;;;;13.45;10.38;;;;;;;14.36;56.75;100130.56;1772601;80;21136;-49
2021/05/16 02:38:17;;;;;;;12.93;10.18;;;;;;;14.28;56.91;100123.75;1853149;77;22175;-48
2021/05/16 02:40:50;;;;;;;12.73;9.70;;;;;;;14.22;56.96;100120.41;1836849;77;22173;-66
2021/05/16 02:43:23;;;;;;;11.22;9.58;;;;;;;14.16;56.95;100120.16;1830520;77;22151;-48
2021/05/16 02:46:11;;;;;;;14.35;8.58;;;;;;;14.09;57.06;100130.52;1776815;80;21620;-50
2021/05/16 02:48:44;;;;;;;14.07;9.55;;;;;;;14.15;57.17;100126.37;1853132;77;22174;-65
2021/05/16 02:51:20;;;;;;;13.80;9.78;;;;;;;14.11;57.28;100132.23;1820683;77;22652;-65
2021/05/16 02:53:52;;;;;;;19.15;10.50;;;;;;;14.15;57.21;100129.45;1818593;77;22138;-66
2021/05/16 02:56:25;;;;;;;13.03;9.28;;;;;;;14.11;57.01;100137.52;1811585;77;22166;-48
2021/05/16 02:58:59;;;;;;;11.65;8.55;;;;;;;14.03;56.98;100134.67;1819753;77;22140;-65
2021/05/16 03:01:33;;;;;;;12.10;8.23;;;;;;;13.96;57.22;100130.04;1808524;77;22661;-48
2021/05/16 03:04:06;;;;;;;15.45;8.80;;;;;;;13.99;57.36;100139.20;1834783;77;22167;-48
2021/05/16 03:06:39;;;;;;;15.30;9.88;;;;;;;14.01;57.50;100138.70;1808499;77;22186;-66
2021/05/16 03:09:28;;;;;;;18.48;11.73;;;;;;;14.02;57.71;100132.50;1761553;81;21142;-67
2021/05/16 03:12:06;;;;;;;14.10;10.80;;;;;;;14.11;57.96;100125.61;1816412;77;22187;-66
2021/05/16 03:14:39;;;;;;;15.28;12.05;;;;;;;14.18;58.04;100123.62;1834790;77;22152;-49
2021/05/16 03:17:12;;;;;;;12.07;10.72;;;;;;;14.20;58.34;100115.63;1832152;77;22112;-66
2021/05/16 03:19:45;;;;;;;22.15;12.23;;;;;;;14.22;58.50;100124.38;1852401;77;22179;-66
2021/05/16 03:22:18;;;;;;;13.18;10.90;;;;;;;14.23;59.03;100131.41;1790601;77;22185;-49
2021/05/16 03:24:51;;;;;;;12.98;10.10;;;;;;;14.32;59.18;100135.57;1832837;77;22192;-63
2021/05/16 03:27:38;;;;;;;14.07;11.50;;;;;;;14.40;59.15;100134.84;1761614;81;21084;-50
2021/05/16 03:30:13;;;;;;;12.63;9.08;;;;;;;14.55;59.30;100130.38;1846400;77;22186;-49
2021/05/16 03:32:46;;;;;;;14.13;9.33;;;;;;;14.61;59.66;100124.00;1820286;77;22166;-48
2021/05/16 03:35:19;;;;;;;14.70;10.13;;;;;;;14.63;59.87;100118.20;1825781;77;22162;-48
2021/05/16 03:37:52;;;;;;;12.37;9.93;;;;;;;14.67;59.84;100117.66;1834799;77;22164;-67
2021/05/16 03:40:38;;;;;;;10.95;9.45;;;;;;;14.77;59.87;100123.53;1740724;81;21308;-50
2021/05/16 03:43:11;;;;;;;13.40;9.58;;;;;;;14.97;59.84;100115.78;1834791;77;22199;-68
2021/05/16 03:45:44;;;;;;;11.45;8.68;;;;;;;15.12;59.79;100117.02;1820073;77;22198;-50
2021/05/16 03:48:18;;;;;;;11.57;9.88;;;;;;;15.27;59.73;100117.38;1843888;77;22116;-48
2021/05/16 03:50:51;;;;;;;16.30;10.75;;;;;;;15.43;59.78;100116.39;1818445;77;22194;-49
2021/05/16 03:53:24;;;;;;;14.30;11.53;;;;;;;15.58;59.51;100118.92;1832618;77;22111;-49
2021/05/16 03:55:57;;;;;;;17.87;10.25;;;;;;;15.71;59.43;100118.00;1835824;77;22668;-49
2021/05/16 03:58:50;;;;;;;11.38;10.15;;;;;;;15.88;59.31;100129.33;1826218;77;22650;-68
2021/05/16 04:01:39;;;;;;;11.85;10.08;;;;;;;16.03;59.38;100128.73;1808360;77;22182;-48
2021/05/16 04:04:13;;;;;;;13.50;9.90;;;;;;;16.16;59.17;100136.20;1827318;77;22120;-68
2021/05/16 04:06:46;;;;;;;12.78;10.48;;;;;;;16.28;59.00;100135.72;1806920;77;22630;-68
2021/05/16 04:09:19;;;;;;;15.10;10.80;;;;;;;16.44;59.03;100137.29;1829847;77;22555;-49
2021/05/16 04:11:52;;;;;;;12.20;10.35;;;;;;;16.56;58.61;100136.40;1820564;77;22579;-68
2021/05/16 04:14:38;;;;;;;26.73;12.28;;;;;;;16.66;58.44;100144.40;1782312;80;21260;-51
2021/05/16 04:17:11;;;;;;;15.38;11.12;;;;;;;16.85;58.39;100142.28;1817195;77;22186;-49
2021/05/16 04:19:45;;;;;;;13.25;10.82;;;;;;;16.99;58.13;100146.59;1817852;77;22167;-68
2021/05/16 04:22:30;;;;;;;12.13;10.35;;;;;;;17.09;58.00;100153.25;1770238;80;21515;-51
2021/05/16 04:25:05;;;;;;;15.58;12.10;;;;;;;17.28;58.10;100143.59;1815319;77;22198;-68
2021/05/16 04:27:38;;;;;;;18.73;13.48;;;;;;;17.42;59.00;100151.84;1820544;77;22181;-49
2021/05/16 04:30:12;;;;;;;19.65;12.37;;;;;;;17.54;58.33;100153.08;1827425;77;22177;-50
2021/05/16 04:32:58;;;;;;;12.50;11.08;;;;;;;17.64;57.84;100158.84;1779829;80;21138;-51
2021/05/16 04:35:31;;;;;;;20.30;12.73;;;;;;;17.88;57.68;100150.20;1812785;77;22173;-50
2021/05/16 04:38:24;;;;;;;16.37;14.63;;;;;;;18.10;57.96;100157.23;1819473;77;22191;-50
2021/05/16 04:40:57;;;;;;;23.85;16.97;;;;;;;18.32;58.78;100156.19;1796712;77;22602;-50
2021/05/16 04:43:30;;;;;;;21.93;15.80;;;;;;;18.49;59.78;100154.91;1816598;77;22884;-67
2021/05/16 04:46:03;;;;;;;20.08;17.92;;;;;;;18.74;60.11;100152.34;1809114;77;22226;-65
2021/05/16 04:48:49;;;;;;;21.60;17.87;;;;;;;18.93;60.55;100154.95;1757750;81;21607;-68
2021/05/16 04:51:22;;;;;;;22.87;17.92;;;;;;;19.24;60.88;100144.05;1798407;77;22177;-50
2021/05/16 04:53:55;;;;;;;22.17;17.67;;;;;;;19.53;61.09;100148.34;1817022;77;22162;-66
2021/05/16 04:56:41;;;;;;;19.80;17.10;;;;;;;19.76;61.33;100153.77;1754808;80;21130;-67
2021/05/16 04:59:14;;;;;;;20.10;16.70;;;;;;;20.09;61.10;100150.67;1799736;77;22146;-50
2021/05/16 05:01:48;;;;;;;20.30;16.35;;;;;;;20.31;60.84;100150.32;1811784;77;22193;-49
2021/05/16 05:04:21;;;;;;;18.07;15.18;;;;;;;20.50;60.58;100143.94;1820704;77;22178;-66
2021/05/16 05:07:07;;;;;;;19.37;14.83;;;;;;;20.63;60.54;100144.95;1750857;81;21589;-50
2021/05/16 05:09:46;;;;;;;17.50;14.47;;;;;;;20.89;60.51;100131.03;1827989;77;22173;-66
2021/05/16 05:12:19;;;;;;;15.35;12.75;;;;;;;21.09;60.34;100121.81;1821206;77;22154;-68
2021/05/16 05:15:07;;;;;;;14.65;11.40;;;;;;;21.27;59.95;100122.50;1783814;80;21339;-67
2021/05/16 05:17:41;;;;;;;15.25;10.25;;;;;;;21.57;59.66;100110.84;1809537;77;22162;-66
2021/05/16 05:20:14;;;;;;;12.58;9.25;;;;;;;21.87;59.16;100111.70;1827575;77;22182;-66
2021/05/16 05:23:00;;;;;;;9.50;7.95;;;;;;;22.09;58.98;100118.72;1761984;80;21145;-50
2021/05/16 05:25:33;;;;;;;11.00;8.08;;;;;;;22.38;58.29;100115.98;1839331;77;22197;-66
2021/05/16 05:28:07;;;;;;;9.55;6.80;;;;;;;22.59;57.91;100116.86;1853104;77;22179;-51
2021/05/16 05:30:40;;;;;;;9.55;7.20;;;;;;;22.84;57.59;100117.41;1814957;77;22221;-66
2021/05/16 05:33:13;;;;;;;9.63;6.83;;;;;;;23.09;57.34;100116.20;1822279;77;22143;-66
2021/05/16 05:35:59;;;;;;;9.73;6.97;;;;;;;23.26;56.94;100117.75;1760329;81;21635;-67
2021/05/16 05:38:32;;;;;;;7.85;5.95;;;;;;;23.57;56.45;100124.50;1834757;77;22171;-50
2021/05/16 05:41:05;;;;;;;9.30;6.33;;;;;;;23.85;55.50;100121.17;1808832;77;22175;-66
2021/05/16 05:43:38;;;;;;;7.87;5.40;;;;;;;24.09;55.27;100138.34;1825836;77;22159;-61
2021/05/16 05:46:25;;;;;;;9.25;5.22;;;;;;;24.27;54.72;100146.41;1691445;83;21185;-51
2021/05/16 05:48:58;;;;;;;7.45;4.70;;;;;;;24.59;53.90;100147.19;1817424;77;22490;-66
2021/05/16 05:51:31;;;;;;;6.12;4.67;;;;;;;24.79;53.53;100143.02;1793808;77;22175;-51
2021/05/16 05:54:05;;;;;;;7.15;5.00;;;;;;;25.01;52.92;100137.81;1816673;77;22172;-66
2021/05/16 05:56:51;;;;;;;6.37;4.72;;;;;;;25.17;52.40;100137.02;1713743;83;21135;-51
2021/05/16 05:59:24;;;;;;;5.87;4.70;;;;;;;25.41;51.52;100115.01;1853134;77;22633;-51
2021/05/16 06:01:59;;;;;;;6.08;4.65;;;;;;;25.54;50.78;100115.79;1801364;77;22622;-52
2021/05/16 06:04:33;;;;;;;6.40;4.80;;;;;;;25.75;50.09;100113.68;1813104;77;27935;-51
2021/05/16 06:07:06;;;;;;;6.37;4.55;;;;;;;25.90;49.47;100103.48;1820045;77;22673;-51
2021/05/16 06:09:39;;;;;;;7.28;5.08;;;;;;;26.08;48.83;100099.30;1834745;77;22151;-66
2021/05/16 06:12:14;;;;;;;6.03;4.45;;;;;;;26.20;48.33;100101.50;1818099;77;22606;-51
2021/05/16 06:14:49;;;;;;;7.10;4.85;;;;;;;26.36;47.90;100098.37;1833678;77;22172;-66
2021/05/16 06:17:41;;;;;;;7.30;4.20;;;;;;;26.51;47.44;100104.83;1820017;77;22204;-51
2021/05/16 06:20:29;;;;;;;7.80;4.10;;;;;;;26.57;46.88;100102.97;1775059;80;21161;-51
2021/05/16 06:23:05;;;;;;;6.03;4.17;;;;;;;26.75;46.23;100103.25;1808096;77;22143;-51
2021/05/16 06:25:37;;;;;;;8.20;3.90;;;;;;;26.88;45.99;100105.78;1840534;77;22186;-67
2021/05/16 06:28:11;;;;;;;7.00;3.50;;;;;;;27.02;45.68;100111.34;1838839;77;22419;-67
2021/05/16 06:30:44;;;;;;;5.35;2.77;;;;;;;27.14;45.41;100105.39;1809536;77;22601;-51
2021/05/16 06:33:17;;;;;;;5.83;2.80;;;;;;;27.31;44.98;100099.36;1828508;77;22598;-66
2021/05/16 06:35:50;;;;;;;6.17;3.20;;;;;;;27.44;43.96;100096.42;1820718;77;22159;-51
2021/05/16 06:38:23;;;;;;;5.75;3.35;;;;;;;27.53;43.71;100092.11;1817369;77;22182;-66
2021/05/16 06:41:09;;;;;;;6.28;3.67;;;;;;;27.61;43.04;100088.71;1757439;80;21115;-52
2021/05/16 06:43:42;;;;;;;5.17;3.58;;;;;;;27.74;42.56;100092.52;1853110;77;22175;-51
2021/05/16 06:46:16;;;;;;;5.08;3.50;;;;;;;27.83;42.30;100081.36;1813659;77;22171;-51
2021/05/16 06:49:02;;;;;;;6.92;3.92;;;;;;;27.93;42.14;100071.94;1768202;80;21103;-67
2021/05/16 06:51:38;;;;;;;5.25;3.50;;;;;;;28.16;41.80;100068.52;1808507;77;22157;-66
2021/05/16 06:54:11;;;;;;;5.83;3.22;;;;;;;28.42;41.03;100072.01;1823305;77;22159;-52
2021/05/16 06:56:46;;;;;;;5.50;3.62;;;;;;;28.63;41.37;100067.80;1792579;77;22188;-66
2021/05/16 06:59:31;;;;;;;4.83;2.62;;;;;;;28.85;40.78;100073.42;1763468;81;21299;-52
2021/05/16 07:02:05;;;;;;;4.33;2.47;;;;;;;29.16;40.16;100066.42;1805081;77;22206;-67
2021/05/16 07:04:38;;;;;;;5.30;2.37;;;;;;;29.42;39.74;100068.52;1853119;77;22155;-67
2021/05/16 07:07:24;;;;;;;4.35;2.30;;;;;;;29.66;38.40;100074.75;1724237;83;21583;-67
2021/05/16 07:10:16;;;;;;;4.45;2.62;;;;;;;30.06;38.49;100075.89;1826933;77;22245;-54
2021/05/16 07:12:50;;;;;;;4.50;2.20;;;;;;;30.37;37.91;100077.73;1829239;77;22150;-68
2021/05/16 07:15:23;;;;;;;3.45;1.80;;;;;;;30.60;37.46;100072.36;1812538;77;22220;-66
2021/05/16 07:17:57;;;;;;;4.00;1.80;;;;;;;30.83;36.41;100068.11;1825369;77;22142;-52
2021/05/16 07:20:42;;;;;;;2.65;1.62;;;;;;;31.00;35.42;100073.67;1780436;80;21147;-53
2021/05/16 07:23:15;;;;;;;2.60;1.50;;;;;;;31.24;34.61;100070.77;1834781;77;22164;-52
2021/05/16 07:25:48;;;;;;;2.00;1.20;;;;;;;31.41;34.20;100071.70;1814729;77;22550;-52
2021/05/16 07:28:21;;;;;;;4.83;1.55;;;;;;;31.43;33.15;100073.75;1825153;77;22178;-52
2021/05/16 07:30:54;;;;;;;5.35;1.57;;;;;;;31.41;32.31;100069.85;1843057;77;22131;-67
2021/05/16 07:33:27;;;;;;;3.30;1.30;;;;;;;31.46;32.46;100072.06;1834736;77;22607;-66
2021/05/16 07:36:07;;;;;;;5.30;1.47;;;;;;;31.57;32.40;100072.31;1814266;77;22205;-53
2021/05/16 07:38:40;;;;;;;2.90;1.45;;;;;;;31.66;32.46;100071.30;1821163;77;22167;-66
2021/05/16 07:41:13;;;;;;;3.10;1.70;;;;;;;31.74;32.05;100066.45;1807930;77;22194;-67
2021/05/16 07:43:47;;;;;;;6.40;2.05;;;;;;;31.76;31.84;100067.14;1819444;77;22199;-52
2021/05/16 07:46:20;;;;;;;2.80;1.45;;;;;;;31.74;31.71;100067.28;1812034;77;22498;-52
2021/05/16 07:48:53;;;;;;;4.45;1.72;;;;;;;31.69;31.49;100069.61;1834735;77;22179;-66
2021/05/16 07:51:26;;;;;;;4.65;1.60;;;;;;;31.44;31.41;100062.73;1829264;77;22601;-52
2021/05/16 07:53:59;;;;;;;3.62;1.67;;;;;;;31.32;31.52;100068.63;1834721;77;22200;-66
2021/05/16 07:56:32;;;;;;;5.33;1.90;;;;;;;31.34;31.43;100057.92;1806278;77;22158;-52
2021/05/16 07:59:19;;;;;;;3.17;1.42;;;;;;;31.07;31.40;100059.80;1761924;80;21610;-68
2021/05/16 08:01:52;;;;;;;3.60;1.77;;;;;;;31.10;31.39;100061.32;1823273;77;22169;-53
2021/05/16 08:04:25;;;;;;;5.65;1.75;;;;;;;30.98;31.54;100056.67;1829292;77;22139;-53
2021/05/16 08:06:59;;;;;;;4.45;1.42;;;;;;;30.87;31.42;100056.44;1804211;77;22182;-66
2021/05/16 08:09:44;;;;;;;3.92;1.62;;;;;;;30.76;31.23;100060.24;1761804;80;21103;-54
2021/05/16 08:12:18;;;;;;;5.50;1.62;;;;;;;30.54;31.67;100058.85;1853075;77;22174;-66
2021/05/16 08:14:51;;;;;;;2.77;1.42;;;;;;;30.59;31.63;100055.20;1850005;77;22131;-52
2021/05/16 08:17:24;;;;;;;4.67;1.67;;;;;;;30.57;31.72;100057.22;1841887;77;22181;-53
2021/05/16 08:19:58;;;;;;;2.83;1.37;;;;;;;30.55;31.70;100049.70;1831379;77;22667;-53
2021/05/16 08:22:43;;;;;;;3.10;1.57;;;;;;;30.50;31.67;100053.39;1751069;80;21154;-52
2021/05/16 08:25:16;;;;;;;6.50;1.52;;;;;;;30.47;31.45;100046.42;1827286;77;22166;-65
2021/05/16 08:27:51;;;;;;;5.58;1.50;;;;;;;30.26;31.96;100046.75;1834783;77;22617;-52
2021/05/16 08:30:37;;;;;;;3.58;1.30;;;;;;;30.26;31.96;100046.75;1727057;82;21183;-53
2021/05/16 08:33:10;;;;;;;9.03;1.70;;;;;;;30.25;31.77;100040.45;1832514;77;22123;-65
2021/05/16 08:35:43;;;;;;;9.38;2.00;;;;;;;30.22;31.75;100045.35;1821141;77;22218;-65
2021/05/16 08:38:16;;;;;;;4.10;1.40;;;;;;;30.22;32.04;100042.64;1853140;77;22155;-52
2021/05/16 08:40:49;;;;;;;3.10;1.10;;;;;;;30.24;32.13;100040.63;1817657;77;22190;-52
2021/05/16 08:43:22;;;;;;;5.15;1.62;;;;;;;30.30;32.15;100040.00;1807151;77;22613;-66
2021/05/16 08:46:09;;;;;;;3.12;1.40;;;;;;;30.37;32.10;100042.45;1773407;80;21186;-67
2021/05/16 08:48:42;;;;;;;4.17;1.27;;;;;;;30.59;32.00;100032.63;1834601;77;22176;-52
2021/05/16 08:51:15;;;;;;;2.80;1.45;;;;;;;30.77;31.74;100033.95;1813883;77;22194;-66
2021/05/16 08:53:49;;;;;;;4.55;1.22;;;;;;;30.92;31.35;100029.61;1826517;77;22135;-52
2021/05/16 08:56:53;;;;;;;5.35;2.10;;;;;;;31.15;31.32;100020.92;1789929;77;28084;-65
2021/05/16 08:59:32;;;;;;;3.40;1.30;;;;;;;31.50;31.12;100016.34;1834733;77;22159;-67
2021/05/16 09:02:06;;;;;;;2.47;1.25;;;;;;;32.17;30.00;100010.06;1820127;77;22190;-52
2021/05/16 09:04:40;;;;;;;3.25;1.40;;;;;;;32.23;30.17;100003.08;1834772;77;22175;-53
2021/05/16 09:07:30;;;;;;;2.50;1.40;;;;;;;32.53;29.63;100003.43;1699489;84;21605;-67
2021/05/16 09:10:05;;;;;;;4.28;1.80;;;;;;;32.96;29.23;99997.77;1830121;77;22210;-53
2021/05/16 09:12:39;;;;;;;4.22;1.70;;;;;;;33.25;28.84;99994.93;1826626;77;22120;-53
2021/05/16 09:15:13;;;;;;;5.05;1.52;;;;;;;33.39;27.25;99998.81;1828060;77;22182;-67
2021/05/16 09:17:58;;;;;;;4.60;1.50;;;;;;;33.13;27.89;99993.61;1762204;80;21619;-52
2021/05/16 09:20:32;;;;;;;3.08;1.40;;;;;;;33.15;26.91;99996.52;1808044;77;22240;-67
2021/05/16 09:23:05;;;;;;;6.83;1.57;;;;;;;33.12;26.83;99991.94;1834781;77;22181;-65
2021/05/16 09:25:39;;;;;;;4.70;1.55;;;;;;;32.97;27.01;99988.57;1812280;77;22202;-66
2021/05/16 09:28:25;;;;;;;5.87;1.75;;;;;;;32.91;26.99;100002.89;1764776;81;21153;-67
2021/05/16 09:30:58;;;;;;;3.98;1.30;;;;;;;32.95;27.24;99993.84;1812178;77;22204;-66
2021/05/16 09:33:31;;;;;;;4.08;1.65;;;;;;;32.76;26.67;99992.66;1826959;77;22606;-67
2021/05/16 09:36:06;;;;;;;5.12;1.65;;;;;;;32.46;26.99;99990.16;1816372;77;22175;-66
2021/05/16 09:38:51;;;;;;;4.60;2.02;;;;;;;32.28;27.58;99995.75;1762142;81;21126;-67
2021/05/16 09:41:24;;;;;;;3.58;2.30;;;;;;;32.23;27.20;99994.91;1829678;77;22634;-51
2021/05/16 09:43:57;;;;;;;3.95;1.60;;;;;;;31.86;27.19;99991.64;1853066;77;22633;-66
2021/05/16 09:46:30;;;;;;;3.80;2.00;;;;;;;31.18;28.12;99979.88;1810461;77;22614;-66
2021/05/16 09:49:04;;;;;;;3.95;1.72;;;;;;;31.05;29.08;99976.22;1831516;77;22528;-66
2021/05/16 09:51:50;;;;;;;3.65;1.70;;;;;;;31.17;29.09;99975.94;1768824;80;21129;-67
2021/05/16 09:54:23;;;;;;;4.55;1.92;;;;;;;31.42;28.85;99968.73;1853120;77;22178;-65
2021/05/16 09:56:56;;;;;;;4.00;1.77;;;;;;;31.68;28.89;99964.55;1804769;77;22159;-66
2021/05/16 09:59:42;;;;;;;3.62;1.95;;;;;;;31.82;28.89;99969.87;1745655;81;21302;-51
2021/05/16 10:02:15;;;;;;;7.08;2.20;;;;;;;32.05;28.83;99961.06;1834785;77;22163;-66
2021/05/16 10:04:48;;;;;;;4.20;2.00;;;;;;;32.35;28.64;99955.97;1851731;77;22132;-52
2021/05/16 10:07:23;;;;;;;4.83;2.08;;;;;;;32.51;28.42;99948.28;1833889;77;22183;-53
2021/05/16 10:10:12;;;;;;;3.22;1.95;;;;;;;32.65;28.55;99952.19;1787344;80;21159;-52
2021/05/16 10:12:44;;;;;;;6.50;2.70;;;;;;;32.81;28.47;99940.89;1819166;77;28015;-65
2021/05/16 10:15:23;;;;;;;5.72;2.35;;;;;;;32.86;28.26;99940.75;1826948;77;22182;-66
2021/05/16 10:17:57;;;;;;;5.72;2.60;;;;;;;32.90;28.11;99933.06;1820834;77;22130;-52
2021/05/16 10:20:30;;;;;;;4.95;1.87;;;;;;;32.87;28.20;99927.97;1824116;77;22186;-52
2021/05/16 10:23:04;;;;;;;6.15;2.05;;;;;;;32.87;28.32;99927.97;1834762;77;22184;-52
2021/05/16 10:25:44;;;;;;;5.33;1.95;;;;;;;32.88;28.10;99922.85;1822262;77;22166;-52
2021/05/16 10:28:56;;;;;;;3.45;1.72;;;;;;;32.90;28.30;99927.61;1760153;81;21383;-53
2021/05/16 10:31:47;;;;;;;4.37;1.70;;;;;;;33.18;28.05;99914.87;1810697;77;22167;-65
2021/05/16 10:34:36;;;;;;;4.78;1.80;;;;;;;32.43;28.88;99917.00;1834017;77;22132;-67
2021/05/16 10:37:13;;;;;;;4.80;1.85;;;;;;;32.27;29.22;99919.19;1834785;77;22610;-67
2021/05/16 10:39:49;;;;;;;3.00;1.52;;;;;;;32.24;29.30;99918.16;1819327;77;22156;-66
2021/05/16 10:42:40;;;;;;;5.50;1.50;;;;;;;32.89;28.33;99914.52;1748288;81;21201;-66
2021/05/16 10:45:16;;;;;;;6.22;1.75;;;;;;;33.13;27.79;99903.15;1815824;77;22594;-66
2021/05/16 10:47:52;;;;;;;2.62;1.60;;;;;;;33.05;27.71;99906.78;1832593;77;22155;-66
2021/05/16 10:50:33;;;;;;;6.50;2.30;;;;;;;33.00;27.71;99910.55;1827576;77;28449;-66
2021/05/16 10:53:20;;;;;;;8.45;3.25;;;;;;;32.94;27.55;99905.80;1834791;77;22144;-52
2021/05/16 10:56:12;;;;;;;8.45;2.75;;;;;;;32.78;27.61;99906.16;1814871;77;22186;-66
2021/05/16 10:58:58;;;;;;;8.48;2.62;;;;;;;32.58;27.93;99904.88;1762030;80;21368;-54
2021/05/16 11:01:36;;;;;;;7.62;2.62;;;;;;;32.41;28.20;99899.98;1802710;77;22193;-51
2021/05/16 11:04:12;;;;;;;10.03;3.65;;;;;;;32.27;28.52;99895.55;1833786;77;22144;-65
2021/05/16 11:06:51;;;;;;;9.53;2.95;;;;;;;32.11;28.69;99890.98;1807487;77;22182;-51
2021/05/16 11:09:37;;;;;;;12.53;4.22;;;;;;;31.83;29.13;99902.72;1761814;81;21308;-66
2021/05/16 11:12:10;;;;;;;9.85;3.25;;;;;;;31.59;29.22;99905.71;1834775;77;22179;-51
2021/05/16 11:14:43;;;;;;;7.83;2.70;;;;;;;31.38;29.44;99907.05;1832796;77;22172;-65
2021/05/16 11:17:29;;;;;;;6.72;1.98;;;;;;;31.19;29.53;99911.40;1764958;81;21129;-66
2021/05/16 11:20:04;;;;;;;4.67;2.10;;;;;;;31.01;29.89;99906.91;1830357;77;22168;-51
2021/05/16 11:22:43;;;;;;;8.23;1.95;;;;;;;30.87;30.05;99911.09;1833963;77;22140;-65
2021/05/16 11:25:28;;;;;;;4.70;1.45;;;;;;;30.75;30.09;99918.66;1783190;80;21174;-66
2021/05/16 11:28:11;;;;;;;7.47;2.17;;;;;;;30.58;30.34;99908.74;1834865;77;22631;-52
2021/05/16 11:30:44;;;;;;;4.12;1.60;;;;;;;30.45;30.58;99914.58;1820946;77;22580;-65
2021/05/16 11:33:35;;;;;;;4.00;1.80;;;;;;;30.07;29.66;99920.23;1761623;80;21139;-52
2021/05/16 11:36:23;;;;;;;5.28;1.72;;;;;;;29.21;31.48;99919.16;1833403;77;22173;-51
2021/05/16 11:38:58;;;;;;;4.42;1.57;;;;;;;28.56;32.53;99912.36;1834736;77;22120;-51
2021/05/16 11:41:41;;;;;;;3.65;1.47;;;;;;;28.18;33.22;99923.15;1810362;77;22693;-69
2021/05/16 11:44:24;;;;;;;5.72;1.77;;;;;;;27.04;35.05;99927.08;1832481;77;22132;-50
2021/05/16 11:47:09;;;;;;;5.05;2.00;;;;;;;26.68;36.25;99936.94;1731811;83;21618;-51
2021/05/16 11:49:49;;;;;;;4.30;1.30;;;;;;;27.13;35.18;99920.86;1834687;77;22175;-51
2021/05/16 11:52:22;;;;;;;6.47;1.37;;;;;;;26.15;36.65;99908.20;1849222;77;23790;-67
2021/05/16 11:54:55;;;;;;;8.88;1.95;;;;;;;26.03;36.87;99895.75;1820008;77;22610;-66
2021/05/16 11:57:36;;;;;;;3.25;1.10;;;;;;;26.15;36.85;99887.97;1826328;77;22162;-53
2021/05/16 12:00:24;;;;;;;1.92;1.00;;;;;;;26.15;36.13;99893.87;1783216;80;21153;-67
2021/05/16 12:03:14;;;;;;;3.50;0.98;;;;;;;25.96;36.25;99884.62;1819966;77;22164;-65
2021/05/16 12:05:47;;;;;;;2.35;0.82;;;;;;;25.80;36.60;99891.33;1820174;77;22186;-66
2021/05/16 12:08:22;;;;;;;1.92;1.07;;;;;;;26.48;35.57;99882.02;1853092;77;22178;-51